createdAt,value
2022-11-16T10:25:10.764Z,12.42
2022-11-16T10:26:56.900Z,11.94
2022-11-16T10:28:43.153Z,14.28
2022-11-16T10:30:29.411Z,19.26
2022-11-16T10:32:16.042Z,18.02
2022-11-16T10:34:02.279Z,17.91
2022-11-16T10:35:50.807Z,16.29
2022-11-16T10:37:40.162Z,17.82
2022-11-16T10:39:29.809Z,17.74
2022-11-16T10:41:19.376Z,17.19
2022-11-16T10:43:08.736Z,17.35
2022-11-16T10:44:58.073Z,15.13
2022-11-16T10:46:47.447Z,15.84
2022-11-16T10:48:36.849Z,15.42
2022-11-16T10:50:26.174Z,14.89
2022-11-16T10:52:15.540Z,14.75
2022-11-16T10:54:05.089Z,14.37
2022-11-16T10:55:54.488Z,13.48
2022-11-16T10:57:43.914Z,14.43
2022-11-16T10:59:33.177Z,13.31
2022-11-16T11:01:22.749Z,13.59
2022-11-16T11:03:12.169Z,14.47
2022-11-16T11:05:01.446Z,15.38
2022-11-16T11:06:50.820Z,15.76
2022-11-16T11:08:40.204Z,16.55
2022-11-16T11:10:29.614Z,17.15
2022-11-16T11:12:19.085Z,16.91
2022-11-16T11:14:09.412Z,16.91
2022-11-16T11:15:58.994Z,18.81
2022-11-16T11:17:48.339Z,16.74
2022-11-16T11:19:38.456Z,16.95
2022-11-16T11:21:27.786Z,16.40
2022-11-16T11:23:17.299Z,15.88
2022-11-16T11:25:06.676Z,15.29
2022-11-16T11:26:56.009Z,15.68
2022-11-16T11:28:45.409Z,15.53
2022-11-16T11:30:34.822Z,15.69
2022-11-16T11:32:24.810Z,15.20
2022-11-16T11:34:14.197Z,16.10
2022-11-16T11:36:03.607Z,16.12
2022-11-16T11:37:53.389Z,17.29
2022-11-16T11:39:42.795Z,17.91
2022-11-16T11:41:32.120Z,17.74
2022-11-16T11:43:21.522Z,18.54
2022-11-16T11:45:11.123Z,19.66
2022-11-16T17:55:00.878Z,20.12
2022-11-16T17:56:50.237Z,20.11
2022-11-16T17:58:40.007Z,20.19
2022-11-16T18:00:29.488Z,20.32
2022-11-16T18:02:25.276Z,22.87
2022-11-16T18:04:14.752Z,23.68
2022-11-16T18:06:04.211Z,23.94
2022-11-16T18:07:53.584Z,24.43
2022-11-16T18:09:43.232Z,25.60
2022-11-16T18:11:32.787Z,24.45
2022-11-16T18:13:22.521Z,24.06
2022-11-16T18:15:29.578Z,25.20
2022-11-16T18:17:07.505Z,25.60
2022-11-16T18:18:56.980Z,25.19
2022-11-16T18:20:46.446Z,24.74
2022-11-16T18:22:35.905Z,24.99
2022-11-16T18:24:25.616Z,25.29
2022-11-16T18:26:15.103Z,25.35
2022-11-16T18:28:04.859Z,26.18
2022-11-16T18:29:54.353Z,25.91
2022-11-16T18:31:44.030Z,26.38
2022-11-16T18:33:34.019Z,26.46
2022-11-16T18:35:23.511Z,26.28
2022-11-16T18:37:12.960Z,26.00
2022-11-16T18:39:02.669Z,26.91
2022-11-16T18:40:52.057Z,26.66
2022-11-16T18:42:41.502Z,26.19
2022-11-16T18:44:31.099Z,25.43
2022-11-16T18:46:21.743Z,24.98
2022-11-16T18:48:11.240Z,25.19
2022-11-16T18:50:00.741Z,25.22
2022-11-16T18:51:50.239Z,24.92
2022-11-16T18:53:41.207Z,24.88
2022-11-16T18:55:30.686Z,24.61
2022-11-16T18:57:20.017Z,25.43
2022-11-16T18:59:09.489Z,24.35
2022-11-16T19:00:59.290Z,23.92
2022-11-16T19:02:48.721Z,24.70
2022-11-16T19:04:38.251Z,23.61
2022-11-16T19:06:27.745Z,23.21
2022-11-16T19:08:17.431Z,23.09
2022-11-16T19:10:07.946Z,23.45
2022-11-16T19:11:57.432Z,23.57
2022-11-16T19:13:46.959Z,23.54
2022-11-16T19:15:36.461Z,23.75
2022-11-16T19:17:26.383Z,23.92
2022-11-16T19:19:15.788Z,24.50
2022-11-16T19:21:05.254Z,24.51
2022-11-16T19:22:54.894Z,25.01
2022-11-16T19:24:44.415Z,25.28
2022-11-16T19:26:33.882Z,24.78
2022-11-16T19:28:23.353Z,25.25
2022-11-16T19:30:13.111Z,25.08
2022-11-16T19:32:02.627Z,24.57
2022-11-16T19:33:52.197Z,23.95
2022-11-16T19:35:41.898Z,24.25
2022-11-16T19:37:31.608Z,24.45
2022-11-16T19:39:21.103Z,24.57
2022-11-16T19:41:10.562Z,24.18
2022-11-16T19:43:00.052Z,24.08
2022-11-16T19:44:55.664Z,24.91
2022-11-16T19:46:45.116Z,24.21
2022-11-16T19:48:34.585Z,24.87
2022-11-16T19:50:24.201Z,25.74
2022-11-16T19:52:13.807Z,26.01
2022-11-16T19:54:03.232Z,25.83
2022-11-16T19:55:52.670Z,24.47
2022-11-16T19:57:42.184Z,25.82
2022-11-16T19:59:31.881Z,25.65
2022-11-16T20:01:21.409Z,26.14
2022-11-16T20:03:11.101Z,26.57
2022-11-16T20:05:00.571Z,26.79
2022-11-16T20:06:50.330Z,26.30
2022-11-16T20:08:39.765Z,26.53
2022-11-16T20:10:29.285Z,26.86
2022-11-16T20:12:18.779Z,26.71
2022-11-16T20:14:08.457Z,26.87
2022-11-16T20:15:57.790Z,27.60
2022-11-16T20:17:47.261Z,28.51
2022-11-16T20:19:36.745Z,27.73
2022-11-16T20:21:26.682Z,30.04
2022-11-16T20:23:16.183Z,31.20
2022-11-16T20:25:05.606Z,32.52
2022-11-16T20:26:55.081Z,32.58
2022-11-16T20:28:44.727Z,32.56
2022-11-16T20:30:34.189Z,31.64
2022-11-16T20:32:23.658Z,30.77
2022-11-16T20:34:13.118Z,31.38
2022-11-16T20:36:02.643Z,30.68
2022-11-16T20:37:52.133Z,31.55
2022-11-16T20:39:42.006Z,31.07
2022-11-16T20:41:31.384Z,31.26
2022-11-16T20:43:21.051Z,29.07
2022-11-16T20:45:10.555Z,29.08
2022-11-16T20:47:00.045Z,29.61
2022-11-16T20:48:49.408Z,27.59
2022-11-16T20:50:38.914Z,26.02
2022-11-16T20:52:28.332Z,25.48
2022-11-16T20:54:17.746Z,25.50
2022-11-16T20:56:07.238Z,25.38
2022-11-16T20:57:56.906Z,24.96
2022-11-16T20:59:46.410Z,24.63
2022-11-16T21:01:35.927Z,23.26
2022-11-16T21:03:25.356Z,23.18
2022-11-16T21:05:15.012Z,21.97
2022-11-16T21:07:04.548Z,21.16
2022-11-16T21:08:54.019Z,21.30
2022-11-16T21:10:43.538Z,20.67
2022-11-16T21:12:33.122Z,20.21
2022-11-16T21:14:22.577Z,20.29
2022-11-16T21:16:12.056Z,18.95
2022-11-16T21:18:01.800Z,19.90
2022-11-16T21:20:20.011Z,18.17
2022-11-16T21:21:46.802Z,17.41
2022-11-16T21:23:36.590Z,17.51
2022-11-16T21:25:26.338Z,17.67
2022-11-16T21:27:17.263Z,17.08
2022-11-16T21:29:06.772Z,17.53
2022-11-16T21:30:56.175Z,17.51
2022-11-16T21:32:45.701Z,17.24
2022-11-16T21:34:39.951Z,17.14
2022-11-16T21:36:30.000Z,17.12
2022-11-16T21:38:19.479Z,17.19
2022-11-16T21:40:08.944Z,16.86
2022-11-16T21:41:58.620Z,16.82
2022-11-16T21:43:48.070Z,16.14
2022-11-16T21:45:37.537Z,15.54
2022-11-16T21:47:27.050Z,16.32
2022-11-16T21:49:16.674Z,16.16
2022-11-16T21:51:06.159Z,16.54
2022-11-16T21:52:55.603Z,16.90
2022-11-16T21:54:45.080Z,17.40
2022-11-16T21:56:34.757Z,17.85
2022-11-16T21:58:24.219Z,18.12
2022-11-16T22:00:13.669Z,17.51
2022-11-16T22:02:03.228Z,17.25
2022-11-16T22:03:52.783Z,17.29
2022-11-16T22:05:42.303Z,16.99
2022-11-16T22:07:31.787Z,17.25
2022-11-16T22:09:21.260Z,17.42
2022-11-16T22:11:10.935Z,16.59
2022-11-16T22:13:00.427Z,17.01
2022-11-16T22:14:50.182Z,16.91
2022-11-16T22:16:39.663Z,16.91
2022-11-16T22:18:29.463Z,17.67
2022-11-16T22:20:18.854Z,18.09
2022-11-16T22:22:08.321Z,18.10
2022-11-16T22:23:57.793Z,18.39
2022-11-16T22:25:47.916Z,18.51
2022-11-16T22:27:58.431Z,18.39
2022-11-16T22:29:32.722Z,18.94
2022-11-16T22:31:22.216Z,19.66
2022-11-16T22:33:11.732Z,20.43
2022-11-16T22:35:01.317Z,20.49
2022-11-16T22:36:50.727Z,20.81
2022-11-16T22:38:40.146Z,19.94
2022-11-16T22:40:29.802Z,18.94
2022-11-16T22:42:19.655Z,18.09
2022-11-16T22:44:09.179Z,19.00
2022-11-16T22:45:57.064Z,17.97
2022-11-16T22:47:45.102Z,17.84
2022-11-16T22:49:32.277Z,17.66
2022-11-16T22:51:20.582Z,17.65
2022-11-16T22:53:06.799Z,18.54
2022-11-16T22:54:53.084Z,18.08
2022-11-16T22:56:39.589Z,18.18
2022-11-16T22:58:25.846Z,19.33
2022-11-16T23:00:12.114Z,19.15
2022-11-16T23:01:58.596Z,17.09
2022-11-16T23:03:44.924Z,18.52
2022-11-16T23:05:31.182Z,19.50
2022-11-16T23:07:17.434Z,19.98
2022-11-16T23:09:03.787Z,20.57
2022-11-16T23:10:50.006Z,21.05
2022-11-16T23:12:36.218Z,21.45
2022-11-16T23:14:22.736Z,21.55
2022-11-16T23:16:09.185Z,21.34
2022-11-16T23:17:55.434Z,21.67
2022-11-16T23:19:41.676Z,22.19
2022-11-16T23:21:27.860Z,22.01
2022-11-16T23:23:14.403Z,22.39
2022-11-16T23:25:00.449Z,22.12
2022-11-16T23:26:46.684Z,21.99
2022-11-16T23:28:32.916Z,22.00
2022-11-16T23:30:19.410Z,21.54
2022-11-16T23:32:05.645Z,22.25
2022-11-16T23:33:51.787Z,21.63
2022-11-16T23:35:38.014Z,21.98
2022-11-16T23:37:24.456Z,21.22
2022-11-16T23:39:10.792Z,21.29
2022-11-16T23:40:56.947Z,21.87
2022-11-16T23:42:43.115Z,22.01
2022-11-16T23:44:29.689Z,22.29
2022-11-16T23:46:15.951Z,22.74
2022-11-16T23:48:02.152Z,21.94
